首页
METAR-TAF:

METAR-TAF

机场 :

安東尼奧·汪帕特國際機場

阿加尼亚, 關島, 美国

纬度: 13-29N, 经度: 144-48E, 海拔: 91米

当前天气观测

该预报发布于32分钟前的22:54 UTC
风速14节,风向
温度 30°C
湿度 75%
气压 1013 hPa
能見度: 16.1公里
少量云层高于2000英尺
散云层高于2500英尺

METAR: PGUM 152254Z 08014KT 10SM FEW020 SCT025 30/25 A2992 RMK SLP124

时间: 09:26 (23:26 UTC)

预报

该预报发布于6小时和3分钟前的17:23 UTC
预报有效从15日的 18点(UTC)到 16日的 24点(UTC)
风速11节,风向
能見度: 10公里
散云层高于1800英尺
散云层高于3000英尺
附近有阵雨
从 15日的 2300点(UTC)
风速15节,风向,有时为23节阵风
能見度: 10公里
散云层高于1800英尺
散云层高于3000英尺
附近有阵雨
从 16日的 0800点(UTC)
风速9节,风向
能見度: 10公里
少量云层高于2000英尺
散云层高于3500英尺
附近有阵雨,

TAF: PGUM 151723Z 1518/1624 09011KT P6SM VCSH SCT018 SCT030 FM152300 09015G23KT P6SM VCSH SCT018 SCT030 FM160800 09009KT P6SM VCSH FEW020 SCT035

超过4000个机场的气象观测和天气预报(METAR&TAF报告)。

可查询的气象台以黄色和红色小点在地图上表示。

将鼠标移到小点上方,可查看气象台名称。

然后点击查看天气观测和预报。

如需切换地图:点击带黑十字的绿色按钮放大地图;点击带横线的绿色按钮缩小地图;或者点击绿色箭头查看邻近地区的地图。


METAR-TAF: